Time;durP1;ratioP1;P1;durP2;ratioP2;P2;SDS_P1;SDS_P2;PMS_P1;PMS_P2;Temp;Humidity;BMP_temperature;BMP_pressure;BME280_temperature;BME280_humidity;BME280_pressure;Samples;Min_cycle;Max_cycle;Signal;HPM_P1;HPM_P2
2021/11/18 00:01:55;;;;;;;9.80;7.00;;;;;;;;;;5181449;22;20487;-91
2021/11/18 00:04:23;;;;;;;8.93;6.70;;;5.00;99.90;;;;;;5155617;27;20433;-93
2021/11/18 00:06:59;;;;;;;7.67;6.67;;;;;;;;;;5155857;22;20865;-92
2021/11/18 00:09:27;;;;;;;8.27;6.20;;;;;;;;;;5132903;28;20452;-91
2021/11/18 00:11:55;;;;;;;8.60;7.47;;;;;;;;;;5137149;28;20431;-92
2021/11/18 00:14:23;;;;;;;7.77;6.20;;;;;;;;;;5133363;28;20472;-92
2021/11/18 00:19:28;;;;;;;6.50;5.23;;;;;;;;;;5185250;22;20470;-92
2021/11/18 00:21:56;;;;;;;7.43;6.53;;;5.10;99.90;;;;;;5161428;22;20565;-91
2021/11/18 00:24:24;;;;;;;10.00;5.70;;;;;;;;;;5157186;22;20479;-91
2021/11/18 00:26:54;;;;;;;8.23;5.90;;;;;;;;;;5152901;27;20431;-92
2021/11/18 00:29:21;;;;;;;6.63;5.27;;;;;;;;;;5156155;22;22231;-93
2021/11/18 00:31:48;;;;;;;6.33;5.20;;;;;;;;;;5125343;22;20498;-91
2021/11/18 00:34:15;;;;;;;6.37;5.13;;;;;;;;;;5119970;22;20490;-92
2021/11/18 00:36:43;;;;;;;8.40;6.60;;;;;;;;;;5118653;22;20486;-92
2021/11/18 00:39:14;;;;;;;7.90;5.73;;;;;;;;;;5125925;22;20503;-90
2021/11/18 00:41:41;;;;;;;7.63;5.67;;;;;;;;;;5106586;28;20813;-92
2021/11/18 00:44:11;;;;;;;7.07;5.87;;;5.20;99.90;;;;;;5111712;22;20518;-92
2021/11/18 00:46:39;;;;;;;11.57;5.50;;;;;;;;;;5086123;28;20466;-92
2021/11/18 00:49:06;;;;;;;7.30;5.50;;;;;;;;;;5125207;22;20848;-91
2021/11/18 00:51:33;;;;;;;8.70;6.20;;;5.20;99.90;;;;;;5109503;28;20509;-94
2021/11/18 00:54:04;;;;;;;7.50;5.60;;;5.20;99.90;;;;;;5097574;28;20429;-92
2021/11/18 00:56:32;;;;;;;6.87;5.03;;;;;;;;;;5108030;28;20475;-94
2021/11/18 00:58:59;;;;;;;7.13;5.53;;;5.20;99.90;;;;;;5105289;28;20439;-90
2021/11/18 01:01:29;;;;;;;5.80;5.20;;;5.20;99.90;;;;;;5098652;28;20474;-91
2021/11/18 01:03:57;;;;;;;7.47;5.47;;;;;;;;;;5105371;28;20448;-93
2021/11/18 01:06:27;;;;;;;7.47;5.67;;;5.20;99.90;;;;;;5104987;28;20468;-91
2021/11/18 01:08:56;;;;;;;7.83;5.10;;;;;;;;;;5121186;22;20495;-93
2021/11/18 01:11:26;;;;;;;8.10;6.37;;;5.20;99.90;;;;;;5121708;28;20483;-90
2021/11/18 01:13:54;;;;;;;6.47;5.30;;;;;;;;;;5123408;28;20923;-91
2021/11/18 01:16:24;;;;;;;6.03;4.90;;;5.20;99.90;;;;;;5124387;28;20451;-91
2021/11/18 01:18:51;;;;;;;12.93;5.73;;;;;;;;;;5122359;28;20475;-92
2021/11/18 01:21:21;;;;;;;8.50;6.40;;;5.10;99.90;;;;;;5126550;28;20456;-92
2021/11/18 01:23:48;;;;;;;9.13;5.23;;;;;;;;;;5126259;28;20440;-91
2021/11/18 01:26:20;;;;;;;6.93;5.63;;;5.30;99.90;;;;;;5133929;22;20487;-91
2021/11/18 01:28:48;;;;;;;6.03;5.17;;;5.30;99.90;;;;;;5119141;28;20448;-91
2021/11/18 01:31:18;;;;;;;7.50;5.87;;;5.30;99.90;;;;;;5126837;22;20493;-92
2021/11/18 01:33:45;;;;;;;6.40;5.10;;;;;;;;;;5019089;28;20448;-92
2021/11/18 01:36:13;;;;;;;8.33;5.30;;;;;;;;;;5014475;28;20451;-90
2021/11/18 01:38:40;;;;;;;6.53;5.63;;;;;;;;;;5004920;28;20580;-92
2021/11/18 01:41:13;;;;;;;5.70;4.50;;;5.30;99.90;;;;;;5074833;22;20494;-90
2021/11/18 01:43:42;;;;;;;7.60;5.47;;;5.30;99.90;;;;;;5105404;28;20967;-91
2021/11/18 01:46:11;;;;;;;7.23;5.43;;;5.30;99.90;;;;;;5106479;28;20449;-90
2021/11/18 01:48:40;;;;;;;8.30;5.53;;;5.30;99.90;;;;;;5105080;28;20456;-92
2021/11/18 01:51:07;;;;;;;6.37;5.23;;;;;;;;;;5109094;28;20481;-92
2021/11/18 01:53:37;;;;;;;8.43;5.33;;;5.30;99.90;;;;;;5107965;28;20467;-91
2021/11/18 01:56:04;;;;;;;7.90;5.43;;;;;;;;;;5108142;28;20535;-91
2021/11/18 01:58:32;;;;;;;6.70;5.33;;;;;;;;;;5106689;28;20453;-90
2021/11/18 02:01:00;;;;;;;6.40;5.57;;;5.40;99.90;;;;;;5114037;22;20502;-92
2021/11/18 02:03:27;;;;;;;8.70;5.30;;;;;;;;;;5106044;28;20464;-91
2021/11/18 02:05:58;;;;;;;7.53;5.33;;;;;;;;;;5106125;28;20471;-91
2021/11/18 02:08:28;;;;;;;5.87;4.80;;;5.40;99.90;;;;;;5107153;28;20995;-93
2021/11/18 02:11:08;;;;;;;6.53;5.47;;;5.40;99.90;;;;;;5107092;28;20483;-92
2021/11/18 02:13:36;;;;;;;7.80;5.10;;;;;;;;;;5107574;28;20444;-92
2021/11/18 02:16:12;;;;;;;5.07;4.13;;;5.30;99.90;;;;;;5106799;28;20445;-92
2021/11/18 02:18:40;;;;;;;6.03;4.57;;;5.30;99.90;;;;;;5108316;28;20448;-90
2021/11/18 02:21:34;;;;;;;5.87;5.20;;;5.40;99.90;;;;;;5107773;28;20492;-92
2021/11/18 02:24:08;;;;;;;8.20;5.00;;;5.40;99.90;;;;;;5109617;28;20461;-91
2021/11/18 02:26:35;;;;;;;6.70;5.30;;;;;;;;;;5118546;22;20515;-92
2021/11/18 02:29:06;;;;;;;6.50;5.43;;;5.40;99.90;;;;;;5124554;28;20458;-92
2021/11/18 02:31:36;;;;;;;6.80;5.03;;;5.40;99.90;;;;;;5128454;28;20495;-91
2021/11/18 02:34:08;;;;;;;6.30;5.37;;;5.40;99.90;;;;;;5129276;28;20467;-91
2021/11/18 02:36:37;;;;;;;6.27;5.20;;;5.50;99.90;;;;;;5130061;28;20436;-92
2021/11/18 02:39:05;;;;;;;6.47;5.00;;;5.40;99.90;;;;;;5123635;28;20446;-93
2021/11/18 02:41:32;;;;;;;6.77;5.10;;;;;;;;;;5124833;28;20444;-93
2021/11/18 02:43:59;;;;;;;8.00;5.90;;;;;;;;;;5124981;28;20447;-93
2021/11/18 02:46:26;;;;;;;7.03;5.80;;;;;;;;;;5127226;28;20444;-91
2021/11/18 02:48:53;;;;;;;7.23;5.60;;;;;;;;;;5135871;22;20481;-93
2021/11/18 02:51:22;;;;;;;6.97;5.57;;;5.60;99.90;;;;;;5131160;22;20484;-90
2021/11/18 02:53:51;;;;;;;6.60;5.40;;;5.60;99.90;;;;;;5124362;28;20455;-91
2021/11/18 02:56:21;;;;;;;8.10;5.67;;;5.60;99.90;;;;;;5111578;22;20839;-91
2021/11/18 02:58:50;;;;;;;6.80;5.83;;;5.60;99.90;;;;;;5112650;22;20477;-92
2021/11/18 03:01:42;;;;;;;6.87;5.50;;;5.60;99.90;;;;;;5107266;22;20489;-91
2021/11/18 03:04:10;;;;;;;10.73;5.70;;;;;;;;;;5118997;22;20507;31
2021/11/18 03:06:37;;;;;;;8.30;6.07;;;;;;;;;;5084000;28;20469;-91
2021/11/18 03:09:06;;;;;;;9.80;6.70;;;;;;;;;;5081514;28;20467;-94
2021/11/18 03:11:33;;;;;;;6.67;5.20;;;;;;;;;;5084412;28;20999;-92
2021/11/18 03:14:00;;;;;;;7.37;5.60;;;;;;;;;;5082969;28;20469;-93
2021/11/18 03:16:28;;;;;;;8.80;5.93;;;;;;;;;;5086306;28;20445;-91
2021/11/18 03:18:55;;;;;;;6.27;5.50;;;;;;;;;;5079527;28;20470;-91
2021/11/18 03:21:26;;;;;;;7.63;6.10;;;5.70;99.90;;;;;;5086787;28;20438;-92
2021/11/18 03:23:54;;;;;;;6.47;5.70;;;5.60;99.90;;;;;;5080647;28;20450;-91
2021/11/18 03:26:26;;;;;;;7.70;6.10;;;5.60;99.90;;;;;;5085981;28;20444;-93
2021/11/18 03:28:53;;;;;;;8.73;6.57;;;;;;;;;;5086287;28;20414;-91
2021/11/18 03:31:20;;;;;;;8.50;6.20;;;;;;;;;;5084924;28;20529;-91
2021/11/18 03:33:53;;;;;;;7.57;6.50;;;5.70;99.90;;;;;;5083794;28;20453;-90
2021/11/18 03:36:26;;;;;;;9.30;7.20;;;5.60;99.90;;;;;;5132830;22;20487;-92
2021/11/18 03:38:54;;;;;;;7.70;6.60;;;5.60;99.90;;;;;;5138563;28;20512;-92
2021/11/18 03:41:30;;;;;;;8.20;6.80;;;5.70;99.90;;;;;;5146367;28;20524;-90
2021/11/18 03:44:00;;;;;;;8.43;6.63;;;5.70;99.90;;;;;;5146074;28;20443;-93
2021/11/18 03:46:31;;;;;;;8.90;7.20;;;5.60;99.90;;;;;;5142705;28;20448;-92
2021/11/18 03:48:59;;;;;;;9.93;7.37;;;;;;;;;;5140090;28;20460;-93
2021/11/18 03:51:28;;;;;;;6.90;6.17;;;;;;;;;;5146217;28;20479;-92
2021/11/18 03:53:55;;;;;;;9.57;7.60;;;;;;;;;;5145889;27;20451;-92
2021/11/18 03:56:38;;;;;;;7.80;6.40;;;6.40;99.90;;;;;;5145945;27;20435;-92
2021/11/18 03:59:07;;;;;;;8.03;6.57;;;;;;;;;;5153985;22;20490;-92
2021/11/18 04:01:36;;;;;;;11.20;7.57;;;;;;;;;;5148812;27;20438;-92
2021/11/18 04:04:04;;;;;;;8.03;6.60;;;5.80;99.90;;;;;;5150090;27;20456;-92
2021/11/18 04:06:31;;;;;;;10.20;8.03;;;;;;;;;;5146647;27;20832;-92
2021/11/18 04:08:59;;;;;;;9.30;6.53;;;;;;;;;;5143129;27;20458;-91
2021/11/18 04:11:28;;;;;;;9.23;6.33;;;5.80;99.90;;;;;;5149654;27;20483;-93
2021/11/18 04:13:57;;;;;;;9.03;6.50;;;;;;;;;;5153270;27;20440;-90
2021/11/18 04:16:24;;;;;;;6.80;5.73;;;;;;;;;;5162747;27;20431;-92
2021/11/18 04:18:52;;;;;;;9.03;6.33;;;;;;;;;;5149968;27;20456;-92
2021/11/18 04:21:19;;;;;;;6.70;5.80;;;;;;;;;;5153722;27;20463;-92
2021/11/18 04:23:46;;;;;;;9.60;6.50;;;;;;;;;;5147172;27;20426;-91
2021/11/18 04:26:19;;;;;;;8.33;5.67;;;;;;;;;;5162073;22;20486;-91
2021/11/18 04:28:55;;;;;;;7.67;5.87;;;;;;;;;;5166366;27;20461;-91
2021/11/18 04:31:23;;;;;;;8.20;6.10;;;5.70;99.90;;;;;;5169828;27;20490;-92
2021/11/18 04:33:51;;;;;;;6.77;5.57;;;;;;;;;;5169479;27;20557;-92
2021/11/18 04:36:23;;;;;;;9.10;6.47;;;5.70;99.90;;;;;;5171877;27;20446;-91
2021/11/18 04:38:54;;;;;;;8.70;6.17;;;5.70;99.90;;;;;;5143599;22;20489;-91
2021/11/18 04:41:23;;;;;;;7.43;6.00;;;5.70;99.90;;;;;;5111581;28;20516;-92
2021/11/18 04:43:52;;;;;;;7.47;6.67;;;5.70;99.90;;;;;;5106443;28;20483;-91
2021/11/18 04:46:20;;;;;;;9.93;6.80;;;5.70;99.90;;;;;;5100779;28;20461;-91
2021/11/18 04:48:47;;;;;;;7.70;6.40;;;;;;;;;;5106139;28;20521;-92
2021/11/18 04:51:17;;;;;;;6.80;6.10;;;5.70;99.90;;;;;;5111130;28;20484;-93
2021/11/18 04:53:44;;;;;;;7.37;6.57;;;;;;;;;;5107140;28;20453;-92
2021/11/18 04:56:11;;;;;;;7.17;5.80;;;5.70;99.90;;;;;;5109219;28;20456;-91
2021/11/18 04:58:38;;;;;;;10.53;6.00;;;;;;;;;;5105270;28;20468;-91
2021/11/18 05:01:08;;;;;;;8.07;6.43;;;5.80;99.90;;;;;;5108189;28;20452;-91
2021/11/18 05:03:35;;;;;;;6.87;5.70;;;;;;;;;;5111204;28;20453;-92
2021/11/18 05:06:04;;;;;;;6.47;5.70;;;5.70;99.90;;;;;;5105677;28;20494;-91
2021/11/18 05:08:31;;;;;;;9.90;5.17;;;;;;;;;;5115740;22;20531;-91
2021/11/18 05:11:01;;;;;;;10.23;6.00;;;;;;;;;;5154456;22;20468;-92
2021/11/18 05:13:36;;;;;;;8.13;5.37;;;5.70;99.90;;;;;;5153112;22;20489;-93
2021/11/18 05:16:08;;;;;;;7.60;5.13;;;5.80;99.90;;;;;;5148772;27;20442;-93
2021/11/18 05:18:36;;;;;;;8.57;6.57;;;;;;;;;;5144630;27;20450;-93
2021/11/18 05:21:14;;;;;;;7.77;6.17;;;5.80;99.90;;;;;;5158501;22;20491;-91
2021/11/18 05:23:42;;;;;;;8.57;5.70;;;5.70;99.90;;;;;;5151857;27;20492;-92
2021/11/18 05:26:14;;;;;;;7.20;5.80;;;5.80;99.90;;;;;;5171653;22;20488;-93
2021/11/18 05:28:41;;;;;;;7.93;5.70;;;;;;;;;;5169999;27;20450;-90
2021/11/18 05:31:10;;;;;;;6.80;5.00;;;;;;;;;;5169766;27;20435;-92
2021/11/18 05:33:37;;;;;;;5.50;4.80;;;5.80;99.90;;;;;;5168771;27;20450;-92
2021/11/18 05:36:05;;;;;;;6.53;5.17;;;5.70;99.90;;;;;;5162934;27;20453;-91
2021/11/18 05:38:32;;;;;;;6.07;5.47;;;;;;;;;;5164062;27;20446;-91
2021/11/18 05:41:03;;;;;;;5.53;4.93;;;5.80;99.90;;;;;;5173271;22;20477;-92
2021/11/18 05:43:32;;;;;;;6.80;5.20;;;5.80;99.90;;;;;;5144645;27;20439;-92
2021/11/18 05:45:59;;;;;;;6.40;5.00;;;;;;;;;;5144478;27;20470;-92
2021/11/18 05:48:28;;;;;;;6.40;5.03;;;;;;;;;;5148365;27;20416;-92
2021/11/18 05:50:57;;;;;;;6.10;5.10;;;5.70;99.90;;;;;;5146665;27;20418;-91
2021/11/18 05:53:29;;;;;;;7.83;5.07;;;5.70;99.90;;;;;;5144754;27;20490;-92
2021/11/18 05:55:57;;;;;;;7.20;5.53;;;5.80;99.90;;;;;;5145430;27;20501;-91
2021/11/18 05:58:25;;;;;;;6.30;5.40;;;;;;;;;;5149263;27;20515;-90
2021/11/18 06:00:52;;;;;;;7.03;5.13;;;;;;;;;;5146148;27;20452;-92
2021/11/18 06:03:23;;;;;;;8.47;5.67;;;;;;;;;;5151866;27;20432;-91
2021/11/18 06:05:54;;;;;;;15.67;11.27;;;;;;;;;;5151049;27;20452;-92
2021/11/18 06:08:23;;;;;;;13.93;10.40;;;5.70;99.90;;;;;;5152819;27;20464;-90
2021/11/18 06:10:54;;;;;;;19.57;12.50;;;5.80;99.90;;;;;;5109725;28;20481;-93
2021/11/18 06:16:05;;;;;;;9.50;6.10;;;5.80;99.90;;;;;;5152146;27;20478;-92
2021/11/18 06:18:32;;;;;;;6.97;6.13;;;;;;;;;;5150352;27;20446;-92
2021/11/18 06:21:00;;;;;;;8.30;6.03;;;;;;;;;;5150506;27;20440;-92
2021/11/18 06:23:28;;;;;;;6.10;5.23;;;;;;;;;;5148673;27;20469;-91
2021/11/18 06:25:55;;;;;;;10.60;5.43;;;;;;;;;;5152569;27;20451;-92
2021/11/18 06:28:32;;;;;;;6.23;5.60;;;;;;;;;;5143759;22;20495;-90
2021/11/18 06:31:05;;;;;;;6.60;5.43;;;5.90;99.90;;;;;;5131261;28;20432;-92
2021/11/18 06:33:32;;;;;;;10.13;6.80;;;;;;;;;;5129914;28;20487;-92
2021/11/18 06:36:23;;;;;;;9.63;6.87;;;5.90;99.90;;;;;;5141227;22;20533;-91
2021/11/18 06:39:21;;;;;;;9.47;6.20;;;5.90;99.90;;;;;;5175060;27;20442;-92
2021/11/18 06:41:49;;;;;;;10.97;7.57;;;5.80;99.90;;;;;;5171528;22;20466;-93
2021/11/18 06:44:17;;;;;;;8.00;6.50;;;5.90;99.90;;;;;;5148487;22;20513;-93
2021/11/18 06:46:44;;;;;;;9.93;6.90;;;;;;;;;;5157234;27;20407;-92
2021/11/18 06:49:16;;;;;;;11.60;6.57;;;;;;;;;;5263888;22;20497;-91
2021/11/18 06:51:46;;;;;;;13.20;9.00;;;;;;;;;;5071760;28;20484;-92
2021/11/18 06:54:18;;;;;;;9.23;6.37;;;5.80;99.90;;;;;;5103847;22;20481;-91
2021/11/18 06:56:47;;;;;;;17.00;7.63;;;;;;;;;;5195592;22;20508;-94
2021/11/18 06:59:18;;;;;;;13.30;8.50;;;;;;;;;;5113889;22;20458;-91
2021/11/18 07:01:55;;;;;;;14.93;8.30;;;5.80;99.90;;;;;;5183266;22;20486;-93
2021/11/18 07:04:23;;;;;;;19.53;7.80;;;;;;;;;;5148261;28;20488;-92
2021/11/18 07:06:51;;;;;;;8.30;5.80;;;5.80;99.90;;;;;;5171515;22;20493;-93
2021/11/18 07:09:19;;;;;;;13.70;8.10;;;5.70;99.90;;;;;;5176274;27;20463;-92
2021/11/18 07:11:46;;;;;;;26.67;7.17;;;;;;;;;;5178545;22;20454;-91
2021/11/18 07:14:13;;;;;;;9.97;6.73;;;;;;;;;;5165069;22;20500;-92
2021/11/18 07:16:44;;;;;;;12.73;8.00;;;5.90;99.90;;;;;;5179027;22;20486;-93
2021/11/18 07:19:11;;;;;;;14.43;10.07;;;;;;;;;;5174048;27;20446;-94
2021/11/18 07:21:38;;;;;;;17.83;10.40;;;;;;;;;;5161096;22;20487;-92
2021/11/18 07:24:08;;;;;;;18.70;8.43;;;5.80;99.90;;;;;;5167474;22;20475;-95
2021/11/18 07:26:38;;;;;;;15.53;10.23;;;;;;;;;;5160359;22;20515;-92
2021/11/18 07:29:07;;;;;;;18.00;8.83;;;5.80;99.90;;;;;;5171598;27;20502;-93
2021/11/18 07:31:35;;;;;;;13.80;7.97;;;;;;;;;;5172130;27;20533;-95
2021/11/18 07:34:02;;;;;;;16.67;8.47;;;;;;;;;;5171057;27;20449;-91
2021/11/18 07:36:30;;;;;;;15.53;8.80;;;;;;;;;;5170669;27;20520;-93
2021/11/18 07:39:00;;;;;;;20.73;10.40;;;;;;;;;;5166459;27;20442;-91
2021/11/18 07:41:30;;;;;;;14.13;7.87;;;;;;;;;;5170788;27;20450;-92
2021/11/18 07:43:57;;;;;;;17.83;8.87;;;;;;;;;;5165081;27;20464;-92
2021/11/18 07:46:24;;;;;;;13.10;7.90;;;;;;;;;;5167986;27;20783;-93
2021/11/18 07:48:52;;;;;;;18.63;9.00;;;;;;;;;;5169439;27;20449;-93
2021/11/18 07:51:20;;;;;;;20.43;9.43;;;;;;;;;;5169314;27;20438;-92
2021/11/18 07:53:48;;;;;;;24.07;10.47;;;5.80;99.90;;;;;;5165646;27;20486;-92
2021/11/18 07:56:17;;;;;;;21.67;9.20;;;5.90;99.90;;;;;;5164689;27;20458;-91
2021/11/18 07:58:47;;;;;;;14.90;8.57;;;5.90;99.90;;;;;;5168747;27;20442;-92
2021/11/18 08:01:15;;;;;;;22.87;10.37;;;6.00;99.90;;;;;;5166543;27;20442;-93
2021/11/18 08:03:42;;;;;;;20.67;10.27;;;6.00;99.90;;;;;;5168606;27;21015;-92
2021/11/18 08:06:11;;;;;;;17.40;9.30;;;6.00;99.90;;;;;;5170059;27;20513;-92
2021/11/18 08:08:44;;;;;;;21.20;10.60;;;;;;;;;;5169509;27;20442;-91
2021/11/18 08:11:13;;;;;;;22.50;9.50;;;6.00;99.90;;;;;;5167049;27;20462;-91
2021/11/18 08:13:40;;;;;;;17.57;10.57;;;;;;;;;;5164252;27;20493;-93
2021/11/18 08:16:08;;;;;;;20.23;11.50;;;;;;;;;;5162499;27;20457;-92
2021/11/18 08:18:35;;;;;;;24.23;11.60;;;;;;;;;;5171735;27;20445;-92
2021/11/18 08:21:06;;;;;;;23.97;12.10;;;;;;;;;;5173398;27;20442;-92
2021/11/18 08:23:43;;;;;;;22.07;9.60;;;6.20;99.90;;;;;;5174743;27;20450;-92
2021/11/18 08:26:16;;;;;;;20.10;10.63;;;6.20;99.90;;;;;;5159323;22;20481;-92
2021/11/18 08:28:44;;;;;;;21.17;11.00;;;6.20;99.90;;;;;;5142286;27;20459;-91
2021/11/18 08:31:12;;;;;;;19.80;10.97;;;;;;;;;;5143823;27;20447;-94
2021/11/18 08:33:40;;;;;;;20.57;10.60;;;;;;;;;;5150251;27;20501;-93
2021/11/18 08:36:09;;;;;;;21.87;10.97;;;;;;;;;;5116227;27;20446;-93
2021/11/18 08:38:36;;;;;;;19.87;9.30;;;;;;;;;;5154873;27;20462;-92
2021/11/18 08:41:04;;;;;;;16.43;9.17;;;6.20;99.90;;;;;;5141400;27;20451;-93
2021/11/18 08:43:34;;;;;;;24.60;12.00;;;6.20;99.90;;;;;;5144020;27;20447;-93
2021/11/18 08:46:01;;;;;;;22.97;11.70;;;;;;;;;;5145878;27;20525;-93
2021/11/18 08:48:33;;;;;;;30.43;12.60;;;6.30;99.90;;;;;;5143333;27;20491;-93
2021/11/18 08:51:01;;;;;;;23.37;13.70;;;6.30;99.90;;;;;;5141400;27;20454;-92
2021/11/18 08:53:32;;;;;;;24.13;10.63;;;6.50;99.90;;;;;;5144099;27;20505;-93
2021/11/18 08:55:59;;;;;;;21.63;11.63;;;;;;;;;;5140160;27;20442;-91
2021/11/18 08:58:28;;;;;;;20.63;11.83;;;6.70;99.90;;;;;;5140674;27;20443;-92
2021/11/18 09:00:57;;;;;;;17.53;10.80;;;6.90;99.90;;;;;;5140590;27;20459;-92
2021/11/18 09:03:27;;;;;;;22.03;10.67;;;7.00;99.90;;;;;;5143135;27;20974;-92
2021/11/18 09:05:59;;;;;;;17.10;10.73;;;;;;;;;;5169385;22;20439;-92
2021/11/18 09:08:27;;;;;;;17.80;9.93;;;;;;;;;;5139467;27;20444;-93
2021/11/18 09:10:54;;;;;;;17.73;10.23;;;;;;;;;;5145492;27;20455;-92
2021/11/18 09:13:22;;;;;;;16.20;9.80;;;7.40;99.90;;;;;;5142844;27;20485;-92
2021/11/18 09:18:15;;;;;;;15.60;9.60;;;7.50;99.90;;;;;;5144398;22;20483;-93
2021/11/18 09:20:44;;;;;;;17.53;9.33;;;7.60;99.90;;;;;;5138637;27;20213;-92
2021/11/18 09:23:14;;;;;;;16.20;10.83;;;7.70;99.90;;;;;;5097151;28;20469;-93
2021/11/18 09:25:43;;;;;;;16.00;9.93;;;7.80;99.90;;;;;;5098507;28;20449;-92
2021/11/18 09:28:11;;;;;;;18.40;11.57;;;;;;;;;;5100611;28;20464;-92
2021/11/18 09:30:42;;;;;;;18.40;9.73;;;7.70;99.90;;;;;;5115281;28;20468;-92
2021/11/18 09:33:09;;;;;;;14.40;8.60;;;;;;;;;;5108202;28;20495;-92
2021/11/18 09:35:39;;;;;;;15.90;10.20;;;7.70;99.90;;;;;;5098433;28;20456;-93
2021/11/18 09:38:08;;;;;;;15.30;9.37;;;7.80;99.90;;;;;;5098074;28;20464;-93
2021/11/18 09:40:43;;;;;;;16.20;8.87;;;8.10;99.90;;;;;;5105895;27;20777;-92
2021/11/18 09:43:30;;;;;;;16.07;9.40;;;8.00;99.90;;;;;;5139309;27;20957;-93
2021/11/18 09:46:08;;;;;;;13.80;8.43;;;7.80;99.90;;;;;;5137698;27;20450;-93
2021/11/18 09:48:48;;;;;;;16.27;8.87;;;7.80;99.90;;;;;;5139243;27;20439;-93
2021/11/18 09:51:43;;;;;;;21.80;10.93;;;7.80;99.90;;;;;;5132991;27;20484;-92
2021/11/18 09:54:38;;;;;;;23.13;13.60;;;7.90;99.90;;;;;;5136955;27;21062;-93
2021/11/18 09:57:41;;;;;;;21.40;10.57;;;7.90;99.90;;;;;;5143752;27;20542;-91
2021/11/18 10:00:16;;;;;;;20.57;10.63;;;7.90;99.90;;;;;;5141454;27;20977;-93
2021/11/18 10:03:02;;;;;;;21.97;11.03;;;7.90;99.90;;;;;;5145692;27;20478;-92
2021/11/18 10:05:34;;;;;;;25.20;12.93;;;7.80;99.90;;;;;;5145681;27;20450;-94
2021/11/18 10:08:06;;;;;;;28.60;12.77;;;8.00;99.90;;;;;;5138146;27;20459;-93
2021/11/18 10:10:40;;;;;;;26.17;11.97;;;8.10;99.90;;;;;;5081721;28;20489;-91
2021/11/18 10:13:30;;;;;;;22.97;10.53;;;8.10;99.90;;;;;;5078324;28;20535;-91
2021/11/18 10:16:04;;;;;;;16.33;11.20;;;8.00;99.90;;;;;;5079921;28;20450;-90
2021/11/18 10:18:35;;;;;;;15.73;10.07;;;8.20;99.90;;;;;;5084179;28;20450;-92
2021/11/18 10:21:14;;;;;;;16.00;9.93;;;8.30;99.90;;;;;;5082459;28;20474;-92
2021/11/18 10:23:42;;;;;;;14.73;9.27;;;;;;;;;;5036574;28;20442;-94
2021/11/18 10:26:14;;;;;;;14.03;8.53;;;8.20;99.90;;;;;;5083982;28;20975;-92
2021/11/18 10:29:17;;;;;;;8.87;6.70;;;8.20;99.90;;;;;;5063879;28;20488;-92
2021/11/18 10:31:50;;;;;;;10.43;7.13;;;8.00;99.90;;;;;;5082511;28;20470;-92
2021/11/18 10:34:22;;;;;;;11.67;7.03;;;8.20;99.90;;;;;;5096348;27;20493;-91
2021/11/18 10:37:10;;;;;;;10.63;7.40;;;8.80;99.90;;;;;;5151527;27;20435;-92
2021/11/18 10:39:54;;;;;;;9.90;6.70;;;9.10;99.90;;;;;;5144345;27;20476;-92
2021/11/18 10:42:29;;;;;;;9.23;6.10;;;9.60;99.90;;;;;;5150182;27;20442;-91
2021/11/18 10:47:56;;;;;;;10.50;5.70;;;;;;;;;;5086294;28;20505;-91
2021/11/18 10:50:33;;;;;;;8.33;5.23;;;10.10;99.90;;;;;;5084260;28;20456;-92
2021/11/18 10:53:08;;;;;;;8.53;4.60;;;9.90;99.90;;;;;;5036797;28;20481;-91
2021/11/18 10:55:38;;;;;;;5.70;4.47;;;9.80;99.90;;;;;;5085798;28;20446;-91
2021/11/18 10:58:10;;;;;;;6.63;4.50;;;9.30;99.90;;;;;;5082114;28;20469;-92
2021/11/18 11:00:52;;;;;;;6.33;3.77;;;9.20;99.90;;;;;;5086304;28;20815;-91
2021/11/18 11:06:54;;;;;;;5.90;4.10;;;8.70;99.90;;;;;;4989263;28;21033;-93
2021/11/18 11:09:21;;;;;;;4.70;4.00;;;;;;;;;;4984364;28;20446;-94
2021/11/18 11:12:03;;;;;;;7.00;4.00;;;8.70;99.90;;;;;;4987574;28;20450;-93
2021/11/18 11:14:56;;;;;;;5.97;3.63;;;8.60;99.90;;;;;;4951210;29;20937;-91
2021/11/18 11:17:40;;;;;;;5.20;3.77;;;8.70;99.90;;;;;;4950213;29;20983;-93
2021/11/18 11:20:12;;;;;;;6.70;4.20;;;8.60;99.90;;;;;;4949530;29;20451;-92
2021/11/18 11:22:51;;;;;;;4.80;3.70;;;8.80;99.90;;;;;;4944170;29;20475;-94
2021/11/18 11:25:47;;;;;;;7.40;4.70;;;8.90;99.90;;;;;;4949751;29;20456;-91
2021/11/18 11:28:37;;;;;;;5.30;3.60;;;9.00;99.90;;;;;;4948682;29;20448;-92
2021/11/18 11:31:17;;;;;;;8.93;4.40;;;8.90;99.90;;;;;;4946192;29;20508;-91
2021/11/18 11:33:49;;;;;;;6.90;4.73;;;8.90;99.90;;;;;;4981058;28;20496;-90
2021/11/18 11:36:22;;;;;;;6.53;4.27;;;9.20;99.90;;;;;;5003781;28;20455;-93
2021/11/18 11:38:58;;;;;;;5.60;4.40;;;9.30;99.90;;;;;;5066868;28;20443;-91
2021/11/18 11:42:07;;;;;;;8.97;4.50;;;9.20;99.90;;;;;;4988366;28;20450;-92
2021/11/18 11:44:43;;;;;;;7.27;4.10;;;9.30;99.90;;;;;;4988347;28;20451;-92
2021/11/18 11:47:16;;;;;;;5.97;3.77;;;9.40;99.90;;;;;;4982242;28;20482;-91
2021/11/18 11:49:54;;;;;;;6.60;4.17;;;9.40;99.90;;;;;;4984875;28;20473;-95
2021/11/18 11:52:34;;;;;;;4.97;3.40;;;9.40;99.90;;;;;;4989102;28;20447;-93
2021/11/18 11:55:56;;;;;;;5.03;3.60;;;9.30;99.90;;;;;;4988902;28;20487;-93
2021/11/18 11:58:28;;;;;;;5.03;3.63;;;9.40;99.90;;;;;;4989431;28;20459;-92
2021/11/18 12:01:04;;;;;;;3.80;2.97;;;8.90;99.90;;;;;;5063390;28;20446;-93
2021/11/18 12:03:45;;;;;;;3.37;3.00;;;9.00;99.90;;;;;;5067034;28;20459;-93
2021/11/18 12:06:27;;;;;;;3.80;3.10;;;9.20;99.90;;;;;;5072628;28;20445;-92
2021/11/18 12:09:00;;;;;;;5.33;3.70;;;9.30;99.90;;;;;;5066988;28;20768;-92
2021/11/18 12:11:39;;;;;;;6.33;4.67;;;9.20;99.90;;;;;;5066301;28;20447;-92
2021/11/18 12:14:28;;;;;;;7.23;5.00;;;9.20;99.90;;;;;;5062427;28;20481;-92
2021/11/18 12:16:59;;;;;;;7.00;4.33;;;9.20;99.90;;;;;;5022378;28;20467;-92
2021/11/18 12:19:38;;;;;;;5.70;4.00;;;9.30;99.90;;;;;;5012802;28;20456;-92
2021/11/18 12:22:27;;;;;;;5.10;4.07;;;9.40;99.90;;;;;;5018332;28;20448;-91
2021/11/18 12:25:05;;;;;;;4.53;4.13;;;9.20;99.90;;;;;;5016799;28;20460;-91
2021/11/18 12:27:36;;;;;;;4.00;3.30;;;9.20;99.90;;;;;;5018382;28;20445;-92
2021/11/18 12:33:12;;;;;;;5.70;4.10;;;9.10;99.90;;;;;;5087421;28;20446;-91
2021/11/18 12:35:48;;;;;;;5.30;3.70;;;9.10;99.90;;;;;;5083327;28;20453;-94
2021/11/18 12:38:43;;;;;;;3.90;3.47;;;9.30;99.90;;;;;;5076420;28;20453;-93
2021/11/18 12:41:35;;;;;;;5.70;4.53;;;9.10;99.90;;;;;;5080914;28;20442;-92
2021/11/18 12:44:37;;;;;;;5.00;4.00;;;9.00;99.90;;;;;;5076804;28;20458;-91
2021/11/18 12:47:20;;;;;;;5.77;4.20;;;8.90;99.90;;;;;;5088905;28;20453;-93
2021/11/18 12:50:09;;;;;;;5.97;4.40;;;8.80;99.90;;;;;;5082779;28;20554;-93
2021/11/18 12:53:05;;;;;;;7.37;5.80;;;8.90;99.90;;;;;;5082142;28;20461;-93
2021/11/18 12:55:52;;;;;;;7.70;6.10;;;9.00;99.90;;;;;;5082924;28;20447;-93
2021/11/18 12:58:40;;;;;;;5.73;5.13;;;9.10;99.90;;;;;;5080873;28;20450;-93
2021/11/18 13:01:50;;;;;;;7.30;5.80;;;9.10;99.90;;;;;;5048785;28;20931;-93
2021/11/18 13:04:44;;;;;;;9.10;6.00;;;9.00;99.90;;;;;;5065365;28;20466;-93
2021/11/18 13:07:32;;;;;;;8.63;5.90;;;9.00;99.90;;;;;;5065764;28;20450;-92
2021/11/18 13:10:30;;;;;;;10.57;6.03;;;8.90;99.90;;;;;;5067560;28;20526;-94
2021/11/18 13:13:31;;;;;;;6.63;5.40;;;8.90;99.90;;;;;;5067787;28;20530;-94
2021/11/18 13:16:35;;;;;;;7.60;5.47;;;8.90;99.90;;;;;;5068639;28;20446;-94
2021/11/18 13:19:33;;;;;;;6.57;5.63;;;8.80;99.90;;;;;;5069108;28;20454;-92
2021/11/18 13:22:19;;;;;;;7.00;5.13;;;8.80;99.90;;;;;;5061946;28;20462;-93
2021/11/18 13:25:07;;;;;;;6.07;4.57;;;8.80;99.90;;;;;;5065477;28;20486;-94
2021/11/18 13:27:40;;;;;;;4.20;3.60;;;8.70;99.90;;;;;;5002961;28;20460;-92
2021/11/18 13:30:21;;;;;;;6.30;4.90;;;8.70;99.90;;;;;;4999400;28;20829;-94
2021/11/18 13:32:50;;;;;;;8.00;6.10;;;8.70;99.90;;;;;;5000946;28;20493;-92
2021/11/18 13:35:22;;;;;;;8.13;6.57;;;8.70;99.90;;;;;;4997519;28;20516;-92
2021/11/18 13:38:02;;;;;;;12.27;7.40;;;8.80;99.90;;;;;;4999498;28;20449;-94
2021/11/18 13:40:30;;;;;;;13.23;7.00;;;8.80;99.90;;;;;;4996530;28;20469;-93
2021/11/18 13:43:08;;;;;;;10.50;8.00;;;8.70;99.90;;;;;;4998506;28;20450;-93
2021/11/18 13:45:42;;;;;;;12.60;8.23;;;8.70;99.90;;;;;;5020893;28;20442;-92
2021/11/18 13:48:12;;;;;;;12.47;9.10;;;8.60;99.90;;;;;;5064101;28;20447;-93
2021/11/18 13:50:44;;;;;;;15.60;10.03;;;8.60;99.90;;;;;;5054262;28;20443;-93
2021/11/18 13:53:14;;;;;;;11.90;8.73;;;8.60;99.90;;;;;;5056402;28;20493;-91
2021/11/18 13:55:48;;;;;;;10.20;7.90;;;8.50;99.90;;;;;;5061282;28;20486;-92
2021/11/18 13:58:19;;;;;;;12.47;8.50;;;8.50;99.90;;;;;;5054318;28;20450;-92
2021/11/18 14:00:47;;;;;;;13.73;9.10;;;8.40;99.90;;;;;;5058220;28;20835;-94
2021/11/18 14:03:22;;;;;;;14.07;9.20;;;8.40;99.90;;;;;;5058525;28;20443;-92
2021/11/18 14:05:53;;;;;;;14.33;9.20;;;8.30;99.90;;;;;;5058711;28;20446;-93
2021/11/18 14:08:24;;;;;;;10.73;7.67;;;8.20;99.90;;;;;;5063007;28;20439;-94
2021/11/18 14:10:55;;;;;;;10.53;8.37;;;8.10;99.90;;;;;;5060345;28;20451;-94
2021/11/18 14:13:38;;;;;;;12.10;9.23;;;8.10;99.90;;;;;;5063892;28;20443;-93
2021/11/18 14:16:10;;;;;;;11.17;8.70;;;8.20;99.90;;;;;;5059365;28;20915;-92